sensor_id;sensor_type;location;lat;lon;timestamp;P1;durP1;ratioP1;P2;durP2;ratioP2
20623;SDS011;10471;42.736;23.346;2022-10-12T00:01:14;73.37;;;44.13;;
20623;SDS011;10471;42.736;23.346;2022-10-12T00:03:39;74.20;;;43.90;;
20623;SDS011;10471;42.736;23.346;2022-10-12T00:06:07;75.83;;;45.93;;
20623;SDS011;10471;42.736;23.346;2022-10-12T00:08:38;75.03;;;44.20;;
20623;SDS011;10471;42.736;23.346;2022-10-12T00:11:05;82.07;;;46.37;;
20623;SDS011;10471;42.736;23.346;2022-10-12T00:13:32;75.00;;;45.30;;
20623;SDS011;10471;42.736;23.346;2022-10-12T00:16:01;78.13;;;45.47;;
20623;SDS011;10471;42.736;23.346;2022-10-12T00:18:31;79.00;;;47.90;;
20623;SDS011;10471;42.736;23.346;2022-10-12T00:21:31;90.17;;;50.90;;
20623;SDS011;10471;42.736;23.346;2022-10-12T00:23:50;90.60;;;48.83;;
20623;SDS011;10471;42.736;23.346;2022-10-12T00:26:20;90.27;;;49.83;;
20623;SDS011;10471;42.736;23.346;2022-10-12T00:28:47;86.63;;;49.43;;
20623;SDS011;10471;42.736;23.346;2022-10-12T00:31:17;92.37;;;50.23;;
20623;SDS011;10471;42.736;23.346;2022-10-12T00:33:44;79.70;;;46.60;;
20623;SDS011;10471;42.736;23.346;2022-10-12T00:36:15;82.90;;;47.70;;
20623;SDS011;10471;42.736;23.346;2022-10-12T00:38:43;83.20;;;48.03;;
20623;SDS011;10471;42.736;23.346;2022-10-12T00:41:10;76.27;;;45.97;;
20623;SDS011;10471;42.736;23.346;2022-10-12T00:43:37;80.13;;;45.53;;
20623;SDS011;10471;42.736;23.346;2022-10-12T00:46:10;80.43;;;46.00;;
20623;SDS011;10471;42.736;23.346;2022-10-12T00:48:48;71.83;;;43.07;;
20623;SDS011;10471;42.736;23.346;2022-10-12T00:51:17;69.53;;;42.03;;
20623;SDS011;10471;42.736;23.346;2022-10-12T00:53:46;71.70;;;43.63;;
20623;SDS011;10471;42.736;23.346;2022-10-12T00:56:17;75.70;;;47.10;;
20623;SDS011;10471;42.736;23.346;2022-10-12T00:58:48;73.13;;;43.77;;
20623;SDS011;10471;42.736;23.346;2022-10-12T01:01:14;71.63;;;42.83;;
20623;SDS011;10471;42.736;23.346;2022-10-12T01:03:41;67.40;;;41.27;;
20623;SDS011;10471;42.736;23.346;2022-10-12T01:06:07;79.10;;;44.43;;
20623;SDS011;10471;42.736;23.346;2022-10-12T01:08:33;76.50;;;44.67;;
20623;SDS011;10471;42.736;23.346;2022-10-12T01:11:00;74.50;;;43.17;;
20623;SDS011;10471;42.736;23.346;2022-10-12T01:13:26;75.83;;;46.03;;
20623;SDS011;10471;42.736;23.346;2022-10-12T01:16:16;74.60;;;46.03;;
20623;SDS011;10471;42.736;23.346;2022-10-12T01:18:50;71.67;;;44.57;;
20623;SDS011;10471;42.736;23.346;2022-10-12T01:21:21;77.90;;;44.00;;
20623;SDS011;10471;42.736;23.346;2022-10-12T01:34:58;68.97;;;41.90;;
20623;SDS011;10471;42.736;23.346;2022-10-12T01:40:03;74.47;;;43.30;;
20623;SDS011;10471;42.736;23.346;2022-10-12T01:42:33;71.50;;;43.53;;
20623;SDS011;10471;42.736;23.346;2022-10-12T01:45:13;76.07;;;42.70;;
20623;SDS011;10471;42.736;23.346;2022-10-12T01:47:44;67.47;;;41.80;;
20623;SDS011;10471;42.736;23.346;2022-10-12T01:50:13;67.97;;;40.90;;
20623;SDS011;10471;42.736;23.346;2022-10-12T01:57:52;61.57;;;39.50;;
20623;SDS011;10471;42.736;23.346;2022-10-12T02:00:52;60.53;;;39.30;;
20623;SDS011;10471;42.736;23.346;2022-10-12T02:03:30;59.67;;;39.17;;
20623;SDS011;10471;42.736;23.346;2022-10-12T02:06:11;51.40;;;34.60;;
20623;SDS011;10471;42.736;23.346;2022-10-12T02:09:02;55.90;;;34.20;;
20623;SDS011;10471;42.736;23.346;2022-10-12T02:11:29;54.50;;;35.23;;
20623;SDS011;10471;42.736;23.346;2022-10-12T02:14:07;54.00;;;34.57;;
20623;SDS011;10471;42.736;23.346;2022-10-12T02:16:38;51.07;;;33.87;;
20623;SDS011;10471;42.736;23.346;2022-10-12T02:19:08;52.70;;;33.00;;
20623;SDS011;10471;42.736;23.346;2022-10-12T02:21:35;54.57;;;35.27;;
20623;SDS011;10471;42.736;23.346;2022-10-12T02:24:06;54.47;;;35.23;;
20623;SDS011;10471;42.736;23.346;2022-10-12T02:26:35;56.80;;;35.53;;
20623;SDS011;10471;42.736;23.346;2022-10-12T02:29:02;51.07;;;32.93;;
20623;SDS011;10471;42.736;23.346;2022-10-12T02:43:01;55.43;;;34.60;;
20623;SDS011;10471;42.736;23.346;2022-10-12T02:45:32;49.73;;;31.73;;
20623;SDS011;10471;42.736;23.346;2022-10-12T02:48:00;63.30;;;40.43;;
20623;SDS011;10471;42.736;23.346;2022-10-12T02:50:26;69.03;;;39.43;;
20623;SDS011;10471;42.736;23.346;2022-10-12T02:52:53;66.23;;;39.93;;
20623;SDS011;10471;42.736;23.346;2022-10-12T02:55:19;61.87;;;38.47;;
20623;SDS011;10471;42.736;23.346;2022-10-12T02:57:44;62.90;;;37.77;;
20623;SDS011;10471;42.736;23.346;2022-10-12T03:00:10;60.90;;;37.87;;
20623;SDS011;10471;42.736;23.346;2022-10-12T03:02:36;62.37;;;38.40;;
20623;SDS011;10471;42.736;23.346;2022-10-12T03:05:01;61.33;;;37.50;;
20623;SDS011;10471;42.736;23.346;2022-10-12T03:07:27;56.53;;;35.40;;
20623;SDS011;10471;42.736;23.346;2022-10-12T03:09:52;60.80;;;36.63;;
20623;SDS011;10471;42.736;23.346;2022-10-12T03:12:17;61.77;;;37.87;;
20623;SDS011;10471;42.736;23.346;2022-10-12T03:14:43;62.23;;;36.97;;
20623;SDS011;10471;42.736;23.346;2022-10-12T03:17:08;61.03;;;34.77;;
20623;SDS011;10471;42.736;23.346;2022-10-12T03:19:34;54.77;;;35.53;;
20623;SDS011;10471;42.736;23.346;2022-10-12T03:21:59;59.50;;;37.37;;
20623;SDS011;10471;42.736;23.346;2022-10-12T03:24:25;65.93;;;41.97;;
20623;SDS011;10471;42.736;23.346;2022-10-12T03:26:50;96.57;;;57.50;;
20623;SDS011;10471;42.736;23.346;2022-10-12T03:29:15;69.00;;;44.20;;
20623;SDS011;10471;42.736;23.346;2022-10-12T03:31:41;58.10;;;37.33;;
20623;SDS011;10471;42.736;23.346;2022-10-12T03:34:06;51.57;;;32.63;;
20623;SDS011;10471;42.736;23.346;2022-10-12T03:36:32;55.80;;;34.53;;
20623;SDS011;10471;42.736;23.346;2022-10-12T03:38:57;54.93;;;36.10;;
20623;SDS011;10471;42.736;23.346;2022-10-12T03:41:23;53.83;;;35.07;;
20623;SDS011;10471;42.736;23.346;2022-10-12T03:43:48;54.20;;;35.03;;
20623;SDS011;10471;42.736;23.346;2022-10-12T03:46:14;55.73;;;36.23;;
20623;SDS011;10471;42.736;23.346;2022-10-12T03:48:39;56.33;;;37.03;;
20623;SDS011;10471;42.736;23.346;2022-10-12T03:51:05;57.73;;;34.97;;
20623;SDS011;10471;42.736;23.346;2022-10-12T03:53:30;59.17;;;37.37;;
20623;SDS011;10471;42.736;23.346;2022-10-12T03:55:56;57.40;;;35.10;;
20623;SDS011;10471;42.736;23.346;2022-10-12T03:58:21;49.60;;;32.60;;
20623;SDS011;10471;42.736;23.346;2022-10-12T04:00:50;52.20;;;32.70;;
20623;SDS011;10471;42.736;23.346;2022-10-12T04:03:17;50.90;;;32.10;;
20623;SDS011;10471;42.736;23.346;2022-10-12T04:05:42;56.27;;;33.70;;
20623;SDS011;10471;42.736;23.346;2022-10-12T04:08:07;52.73;;;32.53;;
20623;SDS011;10471;42.736;23.346;2022-10-12T04:10:33;49.90;;;31.43;;
20623;SDS011;10471;42.736;23.346;2022-10-12T04:12:58;50.23;;;31.27;;
20623;SDS011;10471;42.736;23.346;2022-10-12T04:15:24;49.27;;;31.07;;
20623;SDS011;10471;42.736;23.346;2022-10-12T04:17:49;47.97;;;30.77;;
20623;SDS011;10471;42.736;23.346;2022-10-12T04:20:15;46.33;;;30.60;;
20623;SDS011;10471;42.736;23.346;2022-10-12T04:22:40;50.47;;;31.57;;
20623;SDS011;10471;42.736;23.346;2022-10-12T04:25:06;46.53;;;30.40;;
20623;SDS011;10471;42.736;23.346;2022-10-12T04:27:32;47.93;;;31.43;;
20623;SDS011;10471;42.736;23.346;2022-10-12T04:29:57;52.80;;;31.87;;
20623;SDS011;10471;42.736;23.346;2022-10-12T04:32:22;52.70;;;32.10;;
20623;SDS011;10471;42.736;23.346;2022-10-12T04:34:48;49.33;;;32.70;;
20623;SDS011;10471;42.736;23.346;2022-10-12T04:37:13;48.13;;;31.07;;
20623;SDS011;10471;42.736;23.346;2022-10-12T04:39:39;47.33;;;31.63;;
20623;SDS011;10471;42.736;23.346;2022-10-12T04:42:04;56.23;;;34.13;;
20623;SDS011;10471;42.736;23.346;2022-10-12T04:44:31;55.87;;;33.70;;
20623;SDS011;10471;42.736;23.346;2022-10-12T04:46:57;59.67;;;34.83;;
20623;SDS011;10471;42.736;23.346;2022-10-12T04:49:22;63.37;;;35.87;;
20623;SDS011;10471;42.736;23.346;2022-10-12T04:51:47;58.23;;;34.67;;
20623;SDS011;10471;42.736;23.346;2022-10-12T04:54:13;57.30;;;36.10;;
20623;SDS011;10471;42.736;23.346;2022-10-12T04:56:38;68.00;;;44.47;;
20623;SDS011;10471;42.736;23.346;2022-10-12T04:59:03;88.57;;;52.87;;
20623;SDS011;10471;42.736;23.346;2022-10-12T05:01:29;91.30;;;55.67;;
20623;SDS011;10471;42.736;23.346;2022-10-12T05:03:55;79.13;;;47.07;;
20623;SDS011;10471;42.736;23.346;2022-10-12T05:06:20;73.40;;;45.73;;
20623;SDS011;10471;42.736;23.346;2022-10-12T05:08:46;83.97;;;48.70;;
20623;SDS011;10471;42.736;23.346;2022-10-12T05:11:11;74.80;;;47.90;;
20623;SDS011;10471;42.736;23.346;2022-10-12T05:13:37;77.33;;;47.23;;
20623;SDS011;10471;42.736;23.346;2022-10-12T05:16:02;70.27;;;40.57;;
20623;SDS011;10471;42.736;23.346;2022-10-12T05:18:28;67.27;;;37.93;;
20623;SDS011;10471;42.736;23.346;2022-10-12T05:20:53;63.43;;;36.37;;
20623;SDS011;10471;42.736;23.346;2022-10-12T05:23:19;63.20;;;37.00;;
20623;SDS011;10471;42.736;23.346;2022-10-12T05:25:44;62.33;;;38.17;;
20623;SDS011;10471;42.736;23.346;2022-10-12T05:28:09;64.00;;;38.80;;
20623;SDS011;10471;42.736;23.346;2022-10-12T05:30:35;62.27;;;38.07;;
20623;SDS011;10471;42.736;23.346;2022-10-12T05:33:00;68.73;;;39.03;;
20623;SDS011;10471;42.736;23.346;2022-10-12T05:35:26;64.23;;;38.77;;
20623;SDS011;10471;42.736;23.346;2022-10-12T05:37:51;63.70;;;37.60;;
20623;SDS011;10471;42.736;23.346;2022-10-12T05:40:17;64.53;;;38.93;;
20623;SDS011;10471;42.736;23.346;2022-10-12T05:42:42;64.20;;;38.83;;
20623;SDS011;10471;42.736;23.346;2022-10-12T05:45:09;69.07;;;38.03;;
20623;SDS011;10471;42.736;23.346;2022-10-12T05:47:35;65.27;;;37.27;;
20623;SDS011;10471;42.736;23.346;2022-10-12T05:50:00;67.97;;;37.73;;
20623;SDS011;10471;42.736;23.346;2022-10-12T05:52:26;68.40;;;38.40;;
20623;SDS011;10471;42.736;23.346;2022-10-12T05:54:51;59.07;;;36.07;;
20623;SDS011;10471;42.736;23.346;2022-10-12T05:57:16;58.10;;;34.73;;
20623;SDS011;10471;42.736;23.346;2022-10-12T05:59:43;57.20;;;33.57;;
20623;SDS011;10471;42.736;23.346;2022-10-12T06:02:11;56.30;;;32.63;;
20623;SDS011;10471;42.736;23.346;2022-10-12T06:04:37;55.27;;;33.87;;
20623;SDS011;10471;42.736;23.346;2022-10-12T06:07:03;58.30;;;33.33;;
20623;SDS011;10471;42.736;23.346;2022-10-12T06:09:28;56.50;;;33.63;;
20623;SDS011;10471;42.736;23.346;2022-10-12T06:11:54;53.40;;;32.50;;
20623;SDS011;10471;42.736;23.346;2022-10-12T06:14:19;45.17;;;27.83;;
20623;SDS011;10471;42.736;23.346;2022-10-12T06:16:44;46.97;;;29.50;;
20623;SDS011;10471;42.736;23.346;2022-10-12T06:19:10;44.77;;;28.07;;
20623;SDS011;10471;42.736;23.346;2022-10-12T06:21:36;47.93;;;29.13;;
20623;SDS011;10471;42.736;23.346;2022-10-12T06:24:01;44.90;;;27.80;;
20623;SDS011;10471;42.736;23.346;2022-10-12T06:26:27;45.27;;;27.70;;
20623;SDS011;10471;42.736;23.346;2022-10-12T06:28:52;42.13;;;27.13;;
20623;SDS011;10471;42.736;23.346;2022-10-12T06:31:18;42.70;;;26.93;;
20623;SDS011;10471;42.736;23.346;2022-10-12T06:33:43;45.20;;;28.03;;
20623;SDS011;10471;42.736;23.346;2022-10-12T06:36:09;45.77;;;29.20;;
20623;SDS011;10471;42.736;23.346;2022-10-12T06:38:34;42.63;;;28.10;;
20623;SDS011;10471;42.736;23.346;2022-10-12T06:40:59;43.23;;;28.00;;
20623;SDS011;10471;42.736;23.346;2022-10-12T06:43:25;41.90;;;27.50;;
20623;SDS011;10471;42.736;23.346;2022-10-12T06:45:50;44.30;;;27.30;;
20623;SDS011;10471;42.736;23.346;2022-10-12T06:48:16;40.63;;;27.67;;
20623;SDS011;10471;42.736;23.346;2022-10-12T06:50:41;38.80;;;25.97;;
20623;SDS011;10471;42.736;23.346;2022-10-12T06:53:07;42.80;;;28.43;;
20623;SDS011;10471;42.736;23.346;2022-10-12T06:55:32;40.20;;;27.20;;
20623;SDS011;10471;42.736;23.346;2022-10-12T06:57:57;43.90;;;29.33;;
20623;SDS011;10471;42.736;23.346;2022-10-12T07:00:23;52.43;;;29.90;;
20623;SDS011;10471;42.736;23.346;2022-10-12T07:02:49;43.40;;;28.33;;
20623;SDS011;10471;42.736;23.346;2022-10-12T07:05:15;39.87;;;27.77;;
20623;SDS011;10471;42.736;23.346;2022-10-12T07:07:40;42.80;;;28.83;;
20623;SDS011;10471;42.736;23.346;2022-10-12T07:10:06;43.90;;;28.67;;
20623;SDS011;10471;42.736;23.346;2022-10-12T07:12:34;43.73;;;28.33;;
20623;SDS011;10471;42.736;23.346;2022-10-12T07:15:03;40.20;;;27.23;;
20623;SDS011;10471;42.736;23.346;2022-10-12T07:17:29;42.23;;;26.47;;
20623;SDS011;10471;42.736;23.346;2022-10-12T07:19:54;44.80;;;28.37;;
20623;SDS011;10471;42.736;23.346;2022-10-12T07:22:20;44.80;;;27.23;;
20623;SDS011;10471;42.736;23.346;2022-10-12T07:24:45;41.10;;;26.90;;
20623;SDS011;10471;42.736;23.346;2022-10-12T07:27:10;38.03;;;26.67;;
20623;SDS011;10471;42.736;23.346;2022-10-12T07:29:36;37.20;;;25.57;;
20623;SDS011;10471;42.736;23.346;2022-10-12T07:32:02;36.50;;;24.67;;
20623;SDS011;10471;42.736;23.346;2022-10-12T07:34:29;37.07;;;25.63;;
20623;SDS011;10471;42.736;23.346;2022-10-12T07:36:55;40.87;;;26.73;;
20623;SDS011;10471;42.736;23.346;2022-10-12T07:39:21;39.33;;;27.03;;
20623;SDS011;10471;42.736;23.346;2022-10-12T07:41:48;41.37;;;27.43;;
20623;SDS011;10471;42.736;23.346;2022-10-12T07:44:14;43.27;;;27.33;;
20623;SDS011;10471;42.736;23.346;2022-10-12T07:46:39;42.13;;;27.90;;
20623;SDS011;10471;42.736;23.346;2022-10-12T07:49:05;39.40;;;27.13;;
20623;SDS011;10471;42.736;23.346;2022-10-12T07:51:30;41.67;;;27.77;;
20623;SDS011;10471;42.736;23.346;2022-10-12T07:53:56;37.97;;;25.67;;
20623;SDS011;10471;42.736;23.346;2022-10-12T07:56:21;43.23;;;26.30;;
20623;SDS011;10471;42.736;23.346;2022-10-12T08:01:14;40.00;;;27.40;;
20623;SDS011;10471;42.736;23.346;2022-10-12T08:03:40;40.97;;;26.73;;
20623;SDS011;10471;42.736;23.346;2022-10-12T08:06:12;43.50;;;26.30;;
20623;SDS011;10471;42.736;23.346;2022-10-12T08:08:39;42.93;;;24.97;;
20623;SDS011;10471;42.736;23.346;2022-10-12T08:11:05;38.63;;;24.43;;
20623;SDS011;10471;42.736;23.346;2022-10-12T08:13:32;35.87;;;24.60;;
20623;SDS011;10471;42.736;23.346;2022-10-12T08:15:58;36.30;;;24.17;;
20623;SDS011;10471;42.736;23.346;2022-10-12T08:18:24;34.37;;;23.33;;
20623;SDS011;10471;42.736;23.346;2022-10-12T08:20:50;32.33;;;23.10;;
20623;SDS011;10471;42.736;23.346;2022-10-12T08:23:15;32.60;;;22.70;;
20623;SDS011;10471;42.736;23.346;2022-10-12T08:25:41;34.07;;;22.27;;
20623;SDS011;10471;42.736;23.346;2022-10-12T08:28:08;37.23;;;21.83;;
20623;SDS011;10471;42.736;23.346;2022-10-12T08:30:33;31.53;;;21.47;;
20623;SDS011;10471;42.736;23.346;2022-10-12T08:32:59;32.23;;;21.80;;
20623;SDS011;10471;42.736;23.346;2022-10-12T08:35:24;30.90;;;22.60;;
20623;SDS011;10471;42.736;23.346;2022-10-12T08:37:49;33.33;;;22.00;;
20623;SDS011;10471;42.736;23.346;2022-10-12T08:40:16;28.77;;;21.53;;
20623;SDS011;10471;42.736;23.346;2022-10-12T08:42:51;30.47;;;21.67;;
20623;SDS011;10471;42.736;23.346;2022-10-12T08:45:31;29.63;;;21.50;;
20623;SDS011;10471;42.736;23.346;2022-10-12T08:48:08;29.07;;;20.80;;
20623;SDS011;10471;42.736;23.346;2022-10-12T08:50:47;28.90;;;21.43;;
20623;SDS011;10471;42.736;23.346;2022-10-12T08:53:27;33.70;;;20.50;;
20623;SDS011;10471;42.736;23.346;2022-10-12T08:55:59;31.37;;;19.93;;
20623;SDS011;10471;42.736;23.346;2022-10-12T08:58:32;29.07;;;21.47;;
20623;SDS011;10471;42.736;23.346;2022-10-12T09:01:49;28.07;;;20.17;;
20623;SDS011;10471;42.736;23.346;2022-10-12T09:04:07;26.33;;;19.73;;
20623;SDS011;10471;42.736;23.346;2022-10-12T09:06:56;29.00;;;19.60;;
20623;SDS011;10471;42.736;23.346;2022-10-12T09:15:10;25.40;;;16.17;;
20623;SDS011;10471;42.736;23.346;2022-10-12T09:17:43;21.63;;;16.10;;
20623;SDS011;10471;42.736;23.346;2022-10-12T09:20:18;22.30;;;15.10;;
20623;SDS011;10471;42.736;23.346;2022-10-12T09:22:48;19.93;;;14.77;;
20623;SDS011;10471;42.736;23.346;2022-10-12T09:25:16;18.90;;;13.73;;
20623;SDS011;10471;42.736;23.346;2022-10-12T09:27:47;20.80;;;14.83;;
20623;SDS011;10471;42.736;23.346;2022-10-12T09:30:14;20.93;;;15.70;;
20623;SDS011;10471;42.736;23.346;2022-10-12T09:35:24;23.23;;;16.03;;
20623;SDS011;10471;42.736;23.346;2022-10-12T09:37:51;24.30;;;16.20;;
20623;SDS011;10471;42.736;23.346;2022-10-12T09:40:20;22.10;;;17.60;;
20623;SDS011;10471;42.736;23.346;2022-10-12T09:42:49;23.37;;;17.37;;
20623;SDS011;10471;42.736;23.346;2022-10-12T09:45:18;26.03;;;17.67;;
20623;SDS011;10471;42.736;23.346;2022-10-12T09:51:05;25.47;;;18.93;;
20623;SDS011;10471;42.736;23.346;2022-10-12T09:53:29;26.60;;;17.57;;
20623;SDS011;10471;42.736;23.346;2022-10-12T09:56:02;23.80;;;17.37;;
20623;SDS011;10471;42.736;23.346;2022-10-12T09:58:28;22.13;;;16.00;;
20623;SDS011;10471;42.736;23.346;2022-10-12T10:01:15;21.27;;;16.07;;
20623;SDS011;10471;42.736;23.346;2022-10-12T10:06:43;22.10;;;15.93;;
20623;SDS011;10471;42.736;23.346;2022-10-12T10:09:25;26.63;;;21.33;;
20623;SDS011;10471;42.736;23.346;2022-10-12T10:11:56;25.87;;;18.60;;
20623;SDS011;10471;42.736;23.346;2022-10-12T10:14:23;20.63;;;16.17;;
20623;SDS011;10471;42.736;23.346;2022-10-12T10:16:49;22.33;;;17.83;;
20623;SDS011;10471;42.736;23.346;2022-10-12T10:19:25;24.63;;;17.73;;
20623;SDS011;10471;42.736;23.346;2022-10-12T10:21:51;21.33;;;16.83;;
20623;SDS011;10471;42.736;23.346;2022-10-12T10:24:25;20.57;;;16.23;;
20623;SDS011;10471;42.736;23.346;2022-10-12T10:27:00;20.10;;;16.27;;
20623;SDS011;10471;42.736;23.346;2022-10-12T10:29:37;21.10;;;16.10;;
20623;SDS011;10471;42.736;23.346;2022-10-12T10:32:05;23.17;;;16.30;;
20623;SDS011;10471;42.736;23.346;2022-10-12T10:34:36;22.90;;;16.60;;
20623;SDS011;10471;42.736;23.346;2022-10-12T10:37:02;23.27;;;17.23;;
20623;SDS011;10471;42.736;23.346;2022-10-12T10:40:02;21.73;;;16.17;;
20623;SDS011;10471;42.736;23.346;2022-10-12T10:42:24;21.73;;;15.50;;
20623;SDS011;10471;42.736;23.346;2022-10-12T10:44:56;20.57;;;15.63;;
20623;SDS011;10471;42.736;23.346;2022-10-12T10:47:24;20.10;;;15.03;;
20623;SDS011;10471;42.736;23.346;2022-10-12T10:49:56;20.33;;;15.07;;
20623;SDS011;10471;42.736;23.346;2022-10-12T10:52:25;22.63;;;15.30;;
20623;SDS011;10471;42.736;23.346;2022-10-12T10:55:15;19.23;;;14.37;;
20623;SDS011;10471;42.736;23.346;2022-10-12T10:58:05;22.70;;;15.40;;
20623;SDS011;10471;42.736;23.346;2022-10-12T11:00:39;17.47;;;14.23;;
20623;SDS011;10471;42.736;23.346;2022-10-12T11:05:37;21.10;;;14.47;;
20623;SDS011;10471;42.736;23.346;2022-10-12T11:10:49;19.33;;;14.77;;
20623;SDS011;10471;42.736;23.346;2022-10-12T11:13:27;21.50;;;15.63;;
20623;SDS011;10471;42.736;23.346;2022-10-12T11:16:07;19.00;;;14.13;;
20623;SDS011;10471;42.736;23.346;2022-10-12T11:21:10;19.37;;;14.07;;
20623;SDS011;10471;42.736;23.346;2022-10-12T11:23:47;19.83;;;14.40;;
20623;SDS011;10471;42.736;23.346;2022-10-12T11:27:08;20.50;;;14.13;;
20623;SDS011;10471;42.736;23.346;2022-10-12T11:29:27;22.17;;;14.13;;
20623;SDS011;10471;42.736;23.346;2022-10-12T11:32:03;18.30;;;14.23;;
20623;SDS011;10471;42.736;23.346;2022-10-12T11:34:53;19.30;;;14.70;;
20623;SDS011;10471;42.736;23.346;2022-10-12T11:37:35;18.97;;;13.50;;
20623;SDS011;10471;42.736;23.346;2022-10-12T11:40:08;22.23;;;14.23;;
20623;SDS011;10471;42.736;23.346;2022-10-12T11:46:06;17.67;;;13.03;;
20623;SDS011;10471;42.736;23.346;2022-10-12T11:51:58;20.43;;;13.57;;
20623;SDS011;10471;42.736;23.346;2022-10-12T11:57:33;16.43;;;12.67;;
20623;SDS011;10471;42.736;23.346;2022-10-12T12:05:48;16.00;;;12.73;;
20623;SDS011;10471;42.736;23.346;2022-10-12T12:11:05;16.87;;;12.67;;
20623;SDS011;10471;42.736;23.346;2022-10-12T12:13:43;21.50;;;13.50;;
20623;SDS011;10471;42.736;23.346;2022-10-12T12:24:33;19.83;;;13.80;;
20623;SDS011;10471;42.736;23.346;2022-10-12T12:27:00;21.87;;;14.23;;
20623;SDS011;10471;42.736;23.346;2022-10-12T12:29:25;23.10;;;15.23;;
20623;SDS011;10471;42.736;23.346;2022-10-12T12:31:55;21.10;;;15.53;;
20623;SDS011;10471;42.736;23.346;2022-10-12T12:34:23;22.53;;;16.00;;
20623;SDS011;10471;42.736;23.346;2022-10-12T12:36:49;23.27;;;15.67;;
20623;SDS011;10471;42.736;23.346;2022-10-12T12:39:26;22.23;;;15.80;;
20623;SDS011;10471;42.736;23.346;2022-10-12T12:41:58;22.40;;;15.87;;
20623;SDS011;10471;42.736;23.346;2022-10-12T12:44:42;22.13;;;16.53;;
20623;SDS011;10471;42.736;23.346;2022-10-12T12:49:39;21.27;;;15.90;;
20623;SDS011;10471;42.736;23.346;2022-10-12T12:52:48;24.60;;;15.50;;
20623;SDS011;10471;42.736;23.346;2022-10-12T12:55:11;22.07;;;14.90;;
20623;SDS011;10471;42.736;23.346;2022-10-12T12:58:14;21.13;;;15.10;;
20623;SDS011;10471;42.736;23.346;2022-10-12T13:00:55;20.40;;;15.27;;
20623;SDS011;10471;42.736;23.346;2022-10-12T13:12:00;21.57;;;14.33;;
20623;SDS011;10471;42.736;23.346;2022-10-12T13:14:48;19.27;;;14.13;;
20623;SDS011;10471;42.736;23.346;2022-10-12T13:17:29;19.47;;;14.87;;
20623;SDS011;10471;42.736;23.346;2022-10-12T13:20:16;21.23;;;14.90;;
20623;SDS011;10471;42.736;23.346;2022-10-12T13:22:45;23.10;;;15.17;;
20623;SDS011;10471;42.736;23.346;2022-10-12T13:25:18;19.83;;;13.77;;
20623;SDS011;10471;42.736;23.346;2022-10-12T13:27:53;18.73;;;14.00;;
20623;SDS011;10471;42.736;23.346;2022-10-12T13:30:27;20.53;;;15.47;;
20623;SDS011;10471;42.736;23.346;2022-10-12T13:35:41;19.70;;;14.63;;
20623;SDS011;10471;42.736;23.346;2022-10-12T13:40:37;24.17;;;16.00;;
20623;SDS011;10471;42.736;23.346;2022-10-12T13:44:14;23.47;;;16.50;;
20623;SDS011;10471;42.736;23.346;2022-10-12T13:46:09;20.67;;;14.63;;
20623;SDS011;10471;42.736;23.346;2022-10-12T13:48:55;19.33;;;14.77;;
20623;SDS011;10471;42.736;23.346;2022-10-12T13:51:21;17.73;;;14.10;;
20623;SDS011;10471;42.736;23.346;2022-10-12T13:53:49;20.40;;;14.53;;
20623;SDS011;10471;42.736;23.346;2022-10-12T13:56:15;17.40;;;13.63;;
20623;SDS011;10471;42.736;23.346;2022-10-12T13:58:43;17.67;;;14.07;;
20623;SDS011;10471;42.736;23.346;2022-10-12T14:01:09;19.57;;;14.00;;
20623;SDS011;10471;42.736;23.346;2022-10-12T14:03:39;21.97;;;14.83;;
20623;SDS011;10471;42.736;23.346;2022-10-12T14:06:21;21.80;;;15.37;;
20623;SDS011;10471;42.736;23.346;2022-10-12T14:08:51;18.73;;;14.93;;
20623;SDS011;10471;42.736;23.346;2022-10-12T14:11:16;20.13;;;14.40;;
20623;SDS011;10471;42.736;23.346;2022-10-12T14:13:42;23.07;;;14.33;;
20623;SDS011;10471;42.736;23.346;2022-10-12T14:16:10;18.77;;;14.13;;
20623;SDS011;10471;42.736;23.346;2022-10-12T14:18:38;17.13;;;14.10;;
20623;SDS011;10471;42.736;23.346;2022-10-12T14:23:56;18.83;;;13.60;;
20623;SDS011;10471;42.736;23.346;2022-10-12T14:28:58;21.17;;;14.43;;
20623;SDS011;10471;42.736;23.346;2022-10-12T14:31:51;20.50;;;14.70;;
20623;SDS011;10471;42.736;23.346;2022-10-12T14:35:02;20.53;;;14.67;;
20623;SDS011;10471;42.736;23.346;2022-10-12T14:39:41;18.33;;;14.47;;
20623;SDS011;10471;42.736;23.346;2022-10-12T14:42:20;20.07;;;13.20;;
20623;SDS011;10471;42.736;23.346;2022-10-12T14:44:50;18.00;;;13.43;;
20623;SDS011;10471;42.736;23.346;2022-10-12T14:47:23;20.80;;;14.37;;
20623;SDS011;10471;42.736;23.346;2022-10-12T14:49:50;19.00;;;14.00;;
20623;SDS011;10471;42.736;23.346;2022-10-12T14:54:55;24.13;;;14.47;;
20623;SDS011;10471;42.736;23.346;2022-10-12T14:57:22;22.40;;;13.33;;
20623;SDS011;10471;42.736;23.346;2022-10-12T14:59:49;21.70;;;13.37;;
20623;SDS011;10471;42.736;23.346;2022-10-12T15:02:16;17.57;;;13.37;;
20623;SDS011;10471;42.736;23.346;2022-10-12T15:04:44;21.40;;;14.07;;
20623;SDS011;10471;42.736;23.346;2022-10-12T15:07:11;18.27;;;14.27;;
20623;SDS011;10471;42.736;23.346;2022-10-12T15:09:42;16.30;;;13.00;;
20623;SDS011;10471;42.736;23.346;2022-10-12T15:12:09;18.47;;;13.47;;
20623;SDS011;10471;42.736;23.346;2022-10-12T15:14:37;23.10;;;12.47;;
20623;SDS011;10471;42.736;23.346;2022-10-12T15:17:02;24.97;;;13.07;;
20623;SDS011;10471;42.736;23.346;2022-10-12T15:19:29;19.53;;;13.40;;
20623;SDS011;10471;42.736;23.346;2022-10-12T15:21:54;21.80;;;13.50;;
20623;SDS011;10471;42.736;23.346;2022-10-12T15:24:20;19.07;;;12.57;;
20623;SDS011;10471;42.736;23.346;2022-10-12T15:26:45;23.63;;;13.10;;
20623;SDS011;10471;42.736;23.346;2022-10-12T15:29:11;15.33;;;12.50;;
20623;SDS011;10471;42.736;23.346;2022-10-12T15:31:36;18.60;;;13.10;;
20623;SDS011;10471;42.736;23.346;2022-10-12T15:34:02;17.10;;;12.57;;
20623;SDS011;10471;42.736;23.346;2022-10-12T15:36:27;19.57;;;13.50;;
20623;SDS011;10471;42.736;23.346;2022-10-12T15:38:53;18.60;;;14.10;;
20623;SDS011;10471;42.736;23.346;2022-10-12T15:41:19;17.53;;;13.33;;
20623;SDS011;10471;42.736;23.346;2022-10-12T15:43:47;25.10;;;13.50;;
20623;SDS011;10471;42.736;23.346;2022-10-12T15:46:13;26.13;;;14.67;;
20623;SDS011;10471;42.736;23.346;2022-10-12T15:48:38;25.90;;;15.57;;
20623;SDS011;10471;42.736;23.346;2022-10-12T15:51:06;22.50;;;14.83;;
20623;SDS011;10471;42.736;23.346;2022-10-12T15:53:39;24.83;;;15.23;;
20623;SDS011;10471;42.736;23.346;2022-10-12T15:56:05;25.83;;;14.20;;
20623;SDS011;10471;42.736;23.346;2022-10-12T15:58:36;22.63;;;14.73;;
20623;SDS011;10471;42.736;23.346;2022-10-12T16:01:01;18.13;;;13.87;;
20623;SDS011;10471;42.736;23.346;2022-10-12T16:03:27;20.87;;;14.60;;
20623;SDS011;10471;42.736;23.346;2022-10-12T16:05:55;21.63;;;14.57;;
20623;SDS011;10471;42.736;23.346;2022-10-12T16:08:21;21.33;;;14.50;;
20623;SDS011;10471;42.736;23.346;2022-10-12T16:10:47;20.83;;;15.00;;